首页
METAR-TAF:

METAR-TAF

机场 :

华沙肖邦机场

华沙, 波兰

纬度: 52-10N, 经度: 020-58E, 海拔: 106米

当前天气观测

该预报发布于25分钟前的11:30 UTC
风速10节,风向,在南转南东之间变化
温度 27°C
湿度 37%
气压 1025 hPa
能见度10公里或以上
1500米以下无云,无积雨云

METAR: EPWA 251130Z 10010KT 080V150 CAVOK 27/11 Q1025 NOSIG

时间: 13:55 (11:55 UTC)

预报

该预报发布于25分钟前的11:30 UTC
预报有效从25日的 12点(UTC)到 26日的 12点(UTC)
风速8节,风向
能见度10公里或以上
1500米以下无云,无积雨云

TAF: EPWA 251130Z 2512/2612 10008KT CAVOK

超过4000个机场的气象观测和天气预报(METAR&TAF报告)。

可查询的气象台以黄色和红色小点在地图上表示。

将鼠标移到小点上方,可查看气象台名称。

然后点击查看天气观测和预报。

如需切换地图:点击带黑十字的绿色按钮放大地图;点击带横线的绿色按钮缩小地图;或者点击绿色箭头查看邻近地区的地图。


METAR-TAF: